Time;durP1;ratioP1;P1;durP2;ratioP2;P2;SDS_P1;SDS_P2;PMS_P1;PMS_P2;Temp;Humidity;BMP_temperature;BMP_pressure;BME280_temperature;BME280_humidity;BME280_pressure;Samples;Min_cycle;Max_cycle;Signal;HPM_P1;HPM_P2
2022/01/15 00:00:27;;;;;;;63.83;28.63;;;2.90;99.90;;;;;;5032801;28;20229;-65
2022/01/15 00:02:54;;;;;;;54.47;26.30;;;2.80;99.90;;;;;;5050922;28;20703;-66
2022/01/15 00:05:20;;;;;;;55.97;27.37;;;2.80;99.90;;;;;;5050565;28;20265;-68
2022/01/15 00:07:48;;;;;;;61.13;24.77;;;2.90;99.90;;;;;;5030901;28;20258;-65
2022/01/15 00:10:15;;;;;;;54.83;25.23;;;2.90;99.90;;;;;;5030757;28;20164;-64
2022/01/15 00:12:41;;;;;;;67.93;26.57;;;2.80;99.90;;;;;;5051872;28;20539;-65
2022/01/15 00:15:12;;;;;;;49.53;23.73;;;2.80;99.90;;;;;;5054038;28;20261;-64
2022/01/15 00:17:56;;;;;;;68.10;25.40;;;2.80;99.90;;;;;;5036841;28;20174;-64
2022/01/15 00:20:23;;;;;;;44.97;25.20;;;2.80;99.90;;;;;;5039838;28;20539;-66
2022/01/15 00:22:50;;;;;;;65.60;26.67;;;2.80;99.90;;;;;;5055038;28;20219;-66
2022/01/15 00:25:17;;;;;;;66.47;26.73;;;2.80;99.90;;;;;;5039331;28;20562;-67
2022/01/15 00:27:43;;;;;;;64.60;28.27;;;2.80;99.90;;;;;;5035675;28;20592;-66
2022/01/15 00:30:10;;;;;;;62.63;25.57;;;2.80;99.90;;;;;;5049569;28;20209;-66
2022/01/15 00:32:36;;;;;;;83.33;28.93;;;2.80;99.90;;;;;;5054824;28;20199;-66
2022/01/15 00:35:02;;;;;;;62.23;25.13;;;2.80;99.90;;;;;;5046476;28;20197;-66
2022/01/15 00:37:31;;;;;;;62.83;27.07;;;2.70;99.90;;;;;;5054881;28;20274;-66
2022/01/15 00:40:00;;;;;;;63.07;26.10;;;2.70;99.90;;;;;;5043680;28;20167;-66
2022/01/15 00:42:28;;;;;;;61.10;24.60;;;2.60;99.90;;;;;;5033151;28;20269;-66
2022/01/15 00:44:55;;;;;;;67.70;25.23;;;2.60;99.90;;;;;;5043065;28;20166;-66
2022/01/15 00:47:21;;;;;;;52.30;25.13;;;2.60;99.90;;;;;;5055038;28;20175;-65
2022/01/15 00:49:46;;;;;;;69.80;25.27;;;2.60;99.90;;;;;;5046161;28;20263;-66
2022/01/15 00:52:12;;;;;;;64.37;27.47;;;2.60;99.90;;;;;;5040524;28;20207;-66
2022/01/15 00:54:38;;;;;;;75.00;25.77;;;2.70;99.90;;;;;;5055383;28;20639;-66
2022/01/15 00:57:04;;;;;;;73.87;28.63;;;2.70;99.90;;;;;;5050728;28;20671;-66
2022/01/15 00:59:29;;;;;;;63.40;27.70;;;2.70;99.90;;;;;;5035060;28;20183;-65
2022/01/15 01:01:55;;;;;;;72.67;27.93;;;2.70;99.90;;;;;;5052860;28;20206;-65
2022/01/15 01:04:21;;;;;;;63.90;26.57;;;2.70;99.90;;;;;;5052044;28;20554;-65
2022/01/15 01:06:47;;;;;;;76.10;26.70;;;2.60;99.90;;;;;;5033213;28;20278;-65
2022/01/15 01:09:12;;;;;;;68.20;25.50;;;2.60;99.90;;;;;;5033077;28;20254;-65
2022/01/15 01:11:54;;;;;;;63.77;25.70;;;2.50;99.90;;;;;;5052075;28;20199;-65
2022/01/15 01:20:07;;;;;;;80.70;25.30;;;2.60;99.90;;;;;;5033391;28;20213;-65
2022/01/15 01:25:02;;;;;;;67.20;25.73;;;2.70;99.90;;;;;;5048889;28;20187;-65
2022/01/15 01:27:41;;;;;;;71.87;26.77;;;2.60;99.90;;;;;;5032716;28;20168;-65
2022/01/15 01:30:23;;;;;;;64.50;25.40;;;2.60;99.90;;;;;;5036509;28;20178;-65
2022/01/15 01:35:43;;;;;;;53.83;24.37;;;2.70;99.90;;;;;;5047627;28;20183;-65
2022/01/15 01:38:19;;;;;;;58.57;22.93;;;2.70;99.90;;;;;;5032658;28;20191;-65
2022/01/15 01:40:48;;;;;;;71.93;23.37;;;2.70;99.90;;;;;;5034816;28;20179;-65
2022/01/15 01:45:48;;;;;;;70.70;24.90;;;2.60;99.90;;;;;;5032662;28;20203;-65
2022/01/15 01:48:14;;;;;;;49.37;21.73;;;2.60;99.90;;;;;;5032641;28;20535;-65
2022/01/15 01:50:39;;;;;;;60.73;21.60;;;2.60;99.90;;;;;;5037431;28;20242;-65
2022/01/15 01:53:05;;;;;;;48.80;20.07;;;2.50;99.90;;;;;;5051971;28;20179;-65
2022/01/15 01:55:31;;;;;;;52.83;23.07;;;2.50;99.90;;;;;;5048591;28;20225;-65
2022/01/15 01:57:58;;;;;;;57.67;20.73;;;2.50;99.90;;;;;;5032278;28;20256;-65
2022/01/15 02:00:25;;;;;;;56.67;23.63;;;2.60;99.90;;;;;;5033667;28;20205;-65
2022/01/15 02:02:53;;;;;;;57.07;23.23;;;2.70;99.90;;;;;;5051659;28;20218;-65
2022/01/15 02:05:19;;;;;;;50.97;20.40;;;2.60;99.90;;;;;;5051244;28;20213;-65
2022/01/15 02:07:46;;;;;;;56.93;22.73;;;2.60;99.90;;;;;;5032200;28;20644;-65
2022/01/15 02:10:16;;;;;;;62.23;24.90;;;2.60;99.90;;;;;;5031987;28;20195;-65
2022/01/15 02:12:44;;;;;;;45.47;23.03;;;2.60;99.90;;;;;;5051353;28;20252;-65
2022/01/15 02:15:15;;;;;;;44.17;22.27;;;2.60;99.90;;;;;;5037518;28;20202;-66
2022/01/15 02:17:42;;;;;;;49.83;20.60;;;2.50;99.90;;;;;;5032099;28;20182;-64
2022/01/15 02:20:34;;;;;;;68.63;21.77;;;2.50;99.90;;;;;;5035792;28;20273;-65
2022/01/15 02:25:52;;;;;;;75.07;21.33;;;2.50;99.90;;;;;;5031652;28;20292;-66
2022/01/15 02:28:22;;;;;;;62.53;19.33;;;2.50;99.90;;;;;;5032282;28;20816;-64
2022/01/15 02:31:01;;;;;;;39.73;17.00;;;2.50;99.90;;;;;;5031375;28;20546;-64
2022/01/15 02:33:28;;;;;;;47.20;18.10;;;2.40;99.90;;;;;;5032768;28;20720;-64
2022/01/15 02:35:54;;;;;;;46.83;19.30;;;2.40;99.90;;;;;;5051298;28;20189;-65
2022/01/15 02:38:20;;;;;;;55.70;18.07;;;2.30;99.90;;;;;;5050775;28;20187;-65
2022/01/15 02:40:45;;;;;;;50.10;17.83;;;2.30;99.90;;;;;;5031244;28;20365;-65
2022/01/15 02:43:15;;;;;;;42.23;16.50;;;2.30;99.90;;;;;;5032294;28;20266;-64
2022/01/15 02:45:44;;;;;;;73.20;19.03;;;2.30;99.90;;;;;;5031463;28;20194;-65
2022/01/15 02:48:11;;;;;;;50.13;17.80;;;2.30;99.90;;;;;;5049779;28;20178;-65
2022/01/15 02:50:38;;;;;;;65.60;17.93;;;2.30;99.90;;;;;;5051472;28;20175;-65
2022/01/15 02:53:04;;;;;;;39.87;17.63;;;2.40;99.90;;;;;;5031685;28;20191;-65
2022/01/15 02:55:30;;;;;;;57.37;17.70;;;2.30;99.90;;;;;;5031339;28;20183;-65
2022/01/15 02:57:56;;;;;;;65.43;18.23;;;2.30;99.90;;;;;;5046483;28;20551;-65
2022/01/15 03:00:25;;;;;;;60.23;18.43;;;2.30;99.90;;;;;;5051279;28;20220;-65
2022/01/15 03:02:51;;;;;;;48.43;18.73;;;2.30;99.90;;;;;;5036266;28;20210;-65
2022/01/15 03:05:17;;;;;;;52.40;19.17;;;2.30;99.90;;;;;;5031239;28;20264;-65
2022/01/15 03:07:42;;;;;;;34.40;17.17;;;2.40;99.90;;;;;;5043890;28;20701;-65
2022/01/15 03:10:09;;;;;;;41.67;19.03;;;2.40;99.90;;;;;;5051207;28;20190;-65
2022/01/15 03:12:35;;;;;;;39.67;18.23;;;2.40;99.90;;;;;;5039827;28;20199;-65
2022/01/15 03:15:04;;;;;;;41.80;18.33;;;2.40;99.90;;;;;;5039232;28;20186;-65
2022/01/15 03:17:29;;;;;;;48.50;19.17;;;2.40;99.90;;;;;;5051039;28;20166;-65
2022/01/15 03:19:55;;;;;;;55.43;19.37;;;2.40;99.90;;;;;;5044791;28;20619;-65
2022/01/15 03:22:21;;;;;;;56.13;19.10;;;2.40;99.90;;;;;;5030858;28;20585;-65
2022/01/15 03:24:47;;;;;;;61.70;19.17;;;2.40;99.90;;;;;;5035555;28;20536;-65
2022/01/15 03:27:12;;;;;;;44.43;18.83;;;2.30;99.90;;;;;;5050912;28;20214;-65
2022/01/15 03:29:38;;;;;;;55.87;17.67;;;2.30;99.90;;;;;;5047869;28;20191;-65
2022/01/15 03:32:05;;;;;;;47.17;18.23;;;2.20;99.90;;;;;;5030766;28;20286;-66
2022/01/15 03:34:31;;;;;;;49.93;19.47;;;2.20;99.90;;;;;;5032142;28;20254;-65
2022/01/15 03:36:56;;;;;;;50.90;17.33;;;2.20;99.90;;;;;;5050941;28;20275;-65
2022/01/15 03:39:22;;;;;;;36.87;16.40;;;2.10;99.90;;;;;;5050963;28;20217;-65
2022/01/15 03:41:48;;;;;;;51.00;17.60;;;2.00;99.90;;;;;;5050771;28;20203;-65
2022/01/15 03:44:13;;;;;;;49.00;19.73;;;2.00;99.90;;;;;;5050664;28;20198;-65
2022/01/15 03:46:39;;;;;;;49.27;16.93;;;2.00;99.90;;;;;;5036135;28;20657;-65
2022/01/15 03:49:05;;;;;;;50.73;17.20;;;2.00;99.90;;;;;;5034635;28;20180;-65
2022/01/15 03:51:31;;;;;;;42.73;17.20;;;1.90;99.90;;;;;;5050407;28;20203;-65
2022/01/15 03:53:56;;;;;;;47.40;18.47;;;1.90;99.90;;;;;;5053383;28;20636;-65
2022/01/15 03:56:22;;;;;;;35.97;17.13;;;1.90;99.90;;;;;;5039180;28;20183;-66
2022/01/15 03:58:47;;;;;;;38.87;18.53;;;1.90;99.90;;;;;;5034186;28;20179;-65
2022/01/15 04:01:13;;;;;;;36.97;17.87;;;1.90;99.90;;;;;;5047144;28;20218;-66
2022/01/15 04:03:39;;;;;;;34.07;17.67;;;1.90;99.90;;;;;;5045198;28;20313;-65
2022/01/15 04:06:05;;;;;;;36.97;18.40;;;1.90;99.90;;;;;;5035442;28;20230;-66
2022/01/15 04:08:30;;;;;;;51.33;18.57;;;2.00;99.90;;;;;;5043284;28;20183;-67
2022/01/15 04:10:56;;;;;;;41.50;17.80;;;1.90;99.90;;;;;;5055827;28;20258;-66
2022/01/15 04:13:22;;;;;;;38.77;16.63;;;1.90;99.90;;;;;;5048749;28;20175;-66
2022/01/15 04:15:51;;;;;;;53.07;17.30;;;1.90;99.90;;;;;;5035562;28;20176;-66
2022/01/15 04:18:18;;;;;;;37.97;19.10;;;1.90;99.90;;;;;;5047390;28;20183;-65
2022/01/15 04:20:44;;;;;;;39.93;18.47;;;2.00;99.90;;;;;;5055361;28;20173;-66
2022/01/15 04:23:10;;;;;;;43.53;17.57;;;2.00;99.90;;;;;;5043806;28;20558;-66
2022/01/15 04:25:36;;;;;;;67.27;19.30;;;2.00;99.90;;;;;;5034944;28;20215;-66
2022/01/15 04:28:07;;;;;;;36.07;16.70;;;2.00;99.90;;;;;;5038815;28;20597;-66
2022/01/15 04:30:33;;;;;;;41.17;17.73;;;2.00;99.90;;;;;;5041859;28;20175;-66
2022/01/15 04:32:58;;;;;;;66.73;19.37;;;2.00;99.90;;;;;;5055114;28;20244;-66
2022/01/15 04:35:24;;;;;;;37.57;17.83;;;2.10;99.90;;;;;;5049793;28;20183;-66
2022/01/15 04:37:53;;;;;;;38.67;18.57;;;2.10;99.90;;;;;;5033981;28;20179;-65
2022/01/15 04:40:19;;;;;;;53.77;18.13;;;2.10;99.90;;;;;;5038919;28;20186;-66
2022/01/15 04:42:45;;;;;;;32.57;16.13;;;2.10;99.90;;;;;;5055183;28;20576;-66
2022/01/15 04:45:12;;;;;;;47.90;18.30;;;2.10;99.90;;;;;;5053120;28;20237;-66
2022/01/15 04:47:39;;;;;;;47.63;19.57;;;2.20;99.90;;;;;;5034896;28;20167;-65
2022/01/15 04:50:07;;;;;;;37.33;19.47;;;2.20;99.90;;;;;;5034844;28;20641;-65
2022/01/15 04:52:34;;;;;;;33.47;17.33;;;2.20;99.90;;;;;;5054159;28;20547;-66
2022/01/15 04:55:01;;;;;;;44.17;19.70;;;2.20;99.90;;;;;;5054126;28;20539;-66
2022/01/15 04:57:28;;;;;;;36.37;19.83;;;2.20;99.90;;;;;;5053067;28;20187;-66
2022/01/15 04:59:54;;;;;;;37.30;19.57;;;2.10;99.90;;;;;;5037451;28;20186;-66
2022/01/15 05:02:19;;;;;;;38.43;19.10;;;2.10;99.90;;;;;;5033708;28;20211;-66
2022/01/15 05:04:45;;;;;;;38.33;18.90;;;2.10;99.90;;;;;;5047097;28;20248;-66
2022/01/15 05:07:11;;;;;;;34.40;19.00;;;2.10;99.90;;;;;;5052738;28;20555;-66
2022/01/15 05:09:37;;;;;;;36.70;21.87;;;2.10;99.90;;;;;;5041229;28;20194;-66
2022/01/15 05:12:09;;;;;;;49.57;21.17;;;2.10;99.90;;;;;;5033019;28;20660;-65
2022/01/15 05:14:35;;;;;;;34.73;19.73;;;2.10;99.90;;;;;;5047032;28;20186;-65
2022/01/15 05:17:04;;;;;;;33.83;18.33;;;2.10;99.90;;;;;;5054117;28;20194;-65
2022/01/15 05:19:29;;;;;;;38.17;18.17;;;2.10;99.90;;;;;;5042378;28;20188;-71
2022/01/15 05:21:56;;;;;;;38.80;19.33;;;2.00;99.90;;;;;;5032532;28;20203;-64
2022/01/15 05:24:25;;;;;;;32.37;18.07;;;2.00;99.90;;;;;;5043143;28;20191;-66
2022/01/15 05:26:51;;;;;;;36.87;17.33;;;2.00;99.90;;;;;;5046297;28;20601;-65
2022/01/15 05:29:17;;;;;;;32.97;18.77;;;2.00;99.90;;;;;;5033525;28;20264;-64
2022/01/15 05:31:42;;;;;;;35.63;19.20;;;2.00;99.90;;;;;;5038175;28;20213;-65
2022/01/15 05:34:08;;;;;;;38.37;21.27;;;2.00;99.90;;;;;;5051696;28;20222;-66
2022/01/15 05:36:34;;;;;;;33.77;18.73;;;2.00;99.90;;;;;;5049749;28;20191;-66
2022/01/15 05:38:59;;;;;;;37.83;19.33;;;1.90;99.90;;;;;;5033215;28;20204;-66
2022/01/15 05:41:25;;;;;;;39.83;19.93;;;2.00;99.90;;;;;;5034862;28;20570;-66
2022/01/15 05:43:50;;;;;;;40.87;18.97;;;2.00;99.90;;;;;;5052623;28;20171;-66
2022/01/15 05:46:16;;;;;;;28.27;18.57;;;1.90;99.90;;;;;;5052854;28;20225;-66
2022/01/15 05:48:42;;;;;;;37.03;17.63;;;2.00;99.90;;;;;;5033406;28;20178;-65
2022/01/15 05:51:07;;;;;;;34.77;16.93;;;2.00;99.90;;;;;;5033179;28;20197;-66
2022/01/15 05:53:33;;;;;;;37.77;19.07;;;1.80;99.90;;;;;;5050679;28;20223;-66
2022/01/15 05:55:58;;;;;;;32.27;19.27;;;1.90;99.90;;;;;;5036636;28;20191;-65
2022/01/15 05:58:24;;;;;;;31.93;18.80;;;1.90;99.90;;;;;;5035436;28;20182;-66
2022/01/15 06:00:49;;;;;;;40.00;19.40;;;1.90;99.90;;;;;;5046389;28;20182;-66
2022/01/15 06:03:15;;;;;;;27.50;16.20;;;1.90;99.90;;;;;;5053704;28;20529;-66
2022/01/15 06:05:41;;;;;;;32.57;18.50;;;1.80;99.90;;;;;;5039636;28;20210;-66
2022/01/15 06:08:06;;;;;;;30.90;17.40;;;1.80;99.90;;;;;;5032319;28;20175;-66
2022/01/15 06:10:33;;;;;;;37.93;18.63;;;1.80;99.90;;;;;;5041669;28;20182;-66
2022/01/15 06:12:59;;;;;;;31.63;19.73;;;1.80;99.90;;;;;;5052693;28;20195;-66
2022/01/15 06:15:24;;;;;;;31.17;16.80;;;1.70;99.90;;;;;;5044636;28;20699;-66
2022/01/15 06:17:50;;;;;;;30.07;18.47;;;1.70;99.90;;;;;;5032445;28;20179;-66
2022/01/15 06:20:16;;;;;;;32.83;18.90;;;1.70;99.90;;;;;;5038294;28;20270;-66
2022/01/15 06:22:42;;;;;;;35.67;19.53;;;1.70;99.90;;;;;;5048736;28;20676;-66
2022/01/15 06:25:08;;;;;;;30.73;18.63;;;1.70;99.90;;;;;;5032457;28;20211;-66
2022/01/15 06:27:34;;;;;;;26.33;17.67;;;1.70;99.90;;;;;;5034029;28;20675;-66
2022/01/15 06:30:00;;;;;;;34.90;19.40;;;1.60;99.90;;;;;;5052119;28;20171;-66
2022/01/15 06:32:29;;;;;;;28.80;16.90;;;1.60;99.90;;;;;;5051675;28;20269;-65
2022/01/15 06:34:55;;;;;;;25.50;17.03;;;1.60;99.90;;;;;;5032211;28;20172;-66
2022/01/15 06:37:21;;;;;;;27.43;17.67;;;1.60;99.90;;;;;;5032048;28;20241;-64
2022/01/15 06:39:47;;;;;;;34.80;19.07;;;1.60;99.90;;;;;;5031041;28;20191;-65
2022/01/15 06:42:12;;;;;;;31.70;18.00;;;1.60;99.90;;;;;;5031522;28;20750;-66
2022/01/15 06:44:38;;;;;;;32.13;18.53;;;1.60;99.90;;;;;;5048792;28;20686;-66
2022/01/15 06:47:03;;;;;;;34.50;17.80;;;1.60;99.90;;;;;;5052107;28;20220;-66
2022/01/15 06:49:29;;;;;;;28.43;19.20;;;1.60;99.90;;;;;;5035494;28;20188;-65
2022/01/15 06:51:55;;;;;;;29.30;17.60;;;1.60;99.90;;;;;;5044083;28;20256;-66
2022/01/15 06:54:20;;;;;;;27.43;18.50;;;1.60;99.90;;;;;;5052130;28;20181;-66
2022/01/15 06:56:46;;;;;;;31.63;19.60;;;1.60;99.90;;;;;;5050258;28;20232;-66
2022/01/15 06:59:11;;;;;;;30.50;18.80;;;1.60;99.90;;;;;;5051864;28;20655;-65
2022/01/15 07:01:37;;;;;;;22.30;16.53;;;1.70;99.90;;;;;;5043323;28;20215;-66
2022/01/15 07:04:03;;;;;;;38.97;21.23;;;1.70;99.90;;;;;;5031987;28;20271;-66
2022/01/15 07:06:28;;;;;;;29.60;18.47;;;1.70;99.90;;;;;;5038519;28;20238;-66
2022/01/15 07:08:54;;;;;;;34.23;20.30;;;1.70;99.90;;;;;;5050357;28;20182;-64
2022/01/15 07:11:20;;;;;;;32.90;18.90;;;1.80;99.90;;;;;;5037757;28;20209;-66
2022/01/15 07:13:45;;;;;;;27.47;16.80;;;1.80;99.90;;;;;;5050532;28;20198;-65
2022/01/15 07:16:11;;;;;;;35.17;18.77;;;1.70;99.90;;;;;;5046711;28;20582;-65
2022/01/15 07:18:37;;;;;;;31.13;19.57;;;1.80;99.90;;;;;;5030998;28;20179;-65
2022/01/15 07:21:02;;;;;;;32.40;19.57;;;1.90;99.90;;;;;;5052736;28;20206;-65
2022/01/15 07:23:28;;;;;;;32.93;19.63;;;1.90;99.90;;;;;;5054690;28;20632;-65
2022/01/15 07:25:53;;;;;;;28.17;19.23;;;2.00;99.90;;;;;;5035089;28;20203;-64
2022/01/15 07:28:19;;;;;;;24.03;17.33;;;2.00;99.90;;;;;;5035068;28;20175;-66
2022/01/15 07:30:45;;;;;;;31.67;20.13;;;2.10;99.90;;;;;;5050806;28;20185;-66
2022/01/15 07:33:12;;;;;;;28.73;19.27;;;2.00;99.90;;;;;;5053576;28;20240;-65
2022/01/15 07:35:38;;;;;;;31.90;21.37;;;2.00;99.90;;;;;;5049455;28;20548;-65
2022/01/15 07:38:04;;;;;;;31.60;19.57;;;2.00;99.90;;;;;;5053377;28;20274;-65
2022/01/15 07:40:29;;;;;;;25.87;18.50;;;2.00;99.90;;;;;;5036810;28;20650;-65
2022/01/15 07:42:55;;;;;;;26.70;17.27;;;2.00;99.90;;;;;;5038138;28;20214;-65
2022/01/15 07:45:21;;;;;;;32.77;20.70;;;1.90;99.90;;;;;;5054689;28;20189;-65
2022/01/15 07:47:46;;;;;;;31.93;19.87;;;1.90;99.90;;;;;;5045939;28;20179;-64
2022/01/15 07:50:17;;;;;;;31.17;20.67;;;2.00;99.90;;;;;;5033258;28;20179;-65
2022/01/15 07:52:43;;;;;;;24.87;18.50;;;2.10;99.90;;;;;;5041380;28;20190;-65
2022/01/15 07:55:09;;;;;;;30.20;19.13;;;2.10;99.90;;;;;;5054365;28;20228;-65
2022/01/15 07:57:35;;;;;;;31.57;20.50;;;2.20;99.90;;;;;;5048401;28;20882;-65
2022/01/15 08:00:00;;;;;;;27.03;18.83;;;2.20;99.90;;;;;;5034447;28;20298;-64
2022/01/15 08:02:26;;;;;;;33.13;18.93;;;2.20;99.90;;;;;;5038037;28;20214;-64
2022/01/15 08:04:52;;;;;;;27.37;19.30;;;2.20;99.90;;;;;;5054511;28;20167;-65
2022/01/15 08:07:18;;;;;;;26.83;18.13;;;2.20;99.90;;;;;;5053664;28;20202;-65
2022/01/15 08:09:44;;;;;;;23.53;17.03;;;2.20;99.90;;;;;;5034054;28;20167;-65
2022/01/15 08:12:11;;;;;;;22.30;16.10;;;2.20;99.90;;;;;;5034244;28;20274;-65
2022/01/15 08:14:37;;;;;;;27.83;18.40;;;2.20;99.90;;;;;;5052938;28;20174;-65
2022/01/15 08:17:03;;;;;;;24.87;18.00;;;2.30;99.90;;;;;;5036099;28;20337;-65
2022/01/15 08:19:28;;;;;;;23.50;17.27;;;2.30;99.90;;;;;;5033303;28;20262;-65
2022/01/15 08:21:54;;;;;;;20.93;18.07;;;2.30;99.90;;;;;;5048565;28;20210;-67
2022/01/15 08:24:20;;;;;;;26.30;18.90;;;2.30;99.90;;;;;;5052321;28;20178;-65
2022/01/15 08:26:45;;;;;;;20.33;16.57;;;2.30;99.90;;;;;;5038481;28;20302;-65
2022/01/15 08:29:11;;;;;;;24.73;17.63;;;2.30;99.90;;;;;;5033893;28;20651;-64
2022/01/15 08:31:36;;;;;;;25.60;19.80;;;2.40;99.90;;;;;;5043404;28;20202;-64
2022/01/15 08:34:02;;;;;;;28.40;19.43;;;2.40;99.90;;;;;;5053587;28;20174;-66
2022/01/15 08:36:28;;;;;;;27.33;18.40;;;2.40;99.90;;;;;;5042836;28;20194;-65
2022/01/15 08:38:54;;;;;;;30.30;18.00;;;2.50;99.90;;;;;;5032256;28;20663;-64
2022/01/15 08:41:19;;;;;;;27.90;18.37;;;2.50;99.90;;;;;;5042309;28;20206;-65
2022/01/15 08:43:45;;;;;;;25.77;19.13;;;2.50;99.90;;;;;;5047213;28;20194;-65
2022/01/15 08:46:11;;;;;;;24.57;17.37;;;2.50;99.90;;;;;;5041027;28;20245;-66
2022/01/15 08:48:37;;;;;;;27.07;19.43;;;2.60;99.90;;;;;;5052781;28;20236;-65
2022/01/15 08:51:02;;;;;;;23.23;18.53;;;2.60;99.90;;;;;;5053165;28;20199;-64
2022/01/15 08:53:28;;;;;;;23.70;17.57;;;2.60;99.90;;;;;;5049971;28;20226;-64
2022/01/15 08:55:54;;;;;;;26.07;19.10;;;2.60;99.90;;;;;;5033509;28;20645;-64
2022/01/15 08:58:20;;;;;;;29.57;20.33;;;2.60;99.90;;;;;;5033789;28;20258;-64
2022/01/15 09:00:47;;;;;;;29.93;21.10;;;2.70;99.90;;;;;;5053078;28;20258;-64
2022/01/15 09:03:13;;;;;;;28.67;18.90;;;2.70;99.90;;;;;;5052874;28;20610;-66
2022/01/15 09:05:39;;;;;;;27.67;19.83;;;2.70;99.90;;;;;;5033463;28;20297;-64
2022/01/15 09:08:06;;;;;;;25.23;18.80;;;2.80;99.90;;;;;;5032745;28;20594;-64
2022/01/15 09:10:32;;;;;;;23.40;18.17;;;2.80;99.90;;;;;;5050413;28;20190;-65
2022/01/15 09:12:58;;;;;;;25.23;18.07;;;2.80;99.90;;;;;;5050540;28;20205;-64
2022/01/15 09:15:23;;;;;;;22.07;17.60;;;2.90;99.90;;;;;;5048841;28;20544;-65
2022/01/15 09:17:49;;;;;;;24.67;20.10;;;2.90;99.90;;;;;;5052665;28;20175;-65
2022/01/15 09:20:15;;;;;;;29.00;19.90;;;2.90;99.90;;;;;;5034100;28;20256;-65
2022/01/15 09:22:41;;;;;;;24.23;18.43;;;2.90;99.90;;;;;;5032585;28;20195;-65
2022/01/15 09:25:07;;;;;;;24.30;18.97;;;2.90;99.90;;;;;;5048559;28;20186;-66
2022/01/15 09:30:16;;;;;;;21.50;18.33;;;3.00;99.90;;;;;;5033121;28;20222;-64
2022/01/15 09:32:48;;;;;;;25.43;18.93;;;3.10;99.90;;;;;;5031799;28;20226;-66
2022/01/15 09:35:18;;;;;;;32.77;19.70;;;3.10;99.90;;;;;;5041172;28;20697;-65
2022/01/15 09:37:45;;;;;;;28.67;18.97;;;3.20;99.90;;;;;;5031994;28;20163;-65
2022/01/15 09:40:11;;;;;;;29.73;19.13;;;3.30;99.90;;;;;;5048779;28;20253;-66
2022/01/15 09:42:38;;;;;;;27.70;19.33;;;3.30;99.90;;;;;;5050693;28;20195;-65
2022/01/15 09:45:06;;;;;;;28.60;20.70;;;3.30;99.90;;;;;;5035567;28;20226;-66
2022/01/15 09:47:32;;;;;;;27.30;19.63;;;3.40;99.90;;;;;;5030987;28;20203;-66
2022/01/15 09:50:00;;;;;;;25.87;17.17;;;3.50;99.90;;;;;;5045643;28;20195;-64
2022/01/15 09:52:27;;;;;;;23.07;17.63;;;3.50;99.90;;;;;;5051836;28;20559;-65
2022/01/15 09:54:53;;;;;;;22.33;17.73;;;3.60;99.90;;;;;;5045959;28;20423;-64
2022/01/15 09:57:19;;;;;;;26.50;17.23;;;3.60;99.90;;;;;;5048732;28;20256;-64
2022/01/15 09:59:44;;;;;;;27.47;18.27;;;3.70;99.90;;;;;;5049616;28;20262;-65
2022/01/15 10:02:10;;;;;;;24.10;17.23;;;3.70;99.90;;;;;;5033256;28;20638;-66
2022/01/15 10:04:36;;;;;;;24.43;17.10;;;3.70;99.90;;;;;;5034491;28;20175;-66
2022/01/15 10:07:15;;;;;;;23.03;16.63;;;3.70;99.90;;;;;;5032830;28;20207;-66
2022/01/15 10:09:43;;;;;;;29.13;17.60;;;3.70;99.90;;;;;;5034668;28;20250;-66
2022/01/15 10:12:10;;;;;;;23.83;16.43;;;3.80;99.90;;;;;;5033109;28;20198;-65
2022/01/15 10:14:37;;;;;;;21.20;16.43;;;3.80;99.90;;;;;;5031831;28;20172;-65
2022/01/15 10:17:19;;;;;;;23.43;16.93;;;3.80;99.90;;;;;;5031144;28;20180;-67
2022/01/15 10:19:44;;;;;;;22.73;14.60;;;3.80;99.90;;;;;;5043638;28;20179;-66
2022/01/15 10:22:32;;;;;;;16.47;14.23;;;3.70;99.90;;;;;;5036155;28;20214;-66
2022/01/15 10:25:03;;;;;;;17.90;15.83;;;3.60;99.90;;;;;;5033337;28;20175;-65
2022/01/15 10:27:31;;;;;;;19.70;15.87;;;3.50;99.90;;;;;;5034245;28;20203;-66
2022/01/15 10:30:06;;;;;;;22.20;15.57;;;3.60;99.90;;;;;;5034347;28;20641;-67
2022/01/15 10:32:37;;;;;;;18.83;13.97;;;3.60;99.90;;;;;;5039117;28;20194;-65
2022/01/15 10:35:25;;;;;;;17.10;14.43;;;3.60;99.90;;;;;;5051679;28;20205;-64
2022/01/15 10:37:56;;;;;;;19.60;15.57;;;3.60;99.90;;;;;;5042321;28;20524;-65
2022/01/15 10:40:28;;;;;;;17.80;14.40;;;3.70;99.90;;;;;;5031622;28;20554;-65
2022/01/15 10:42:59;;;;;;;18.17;16.23;;;3.70;99.90;;;;;;5038176;28;20252;-65
2022/01/15 10:45:31;;;;;;;17.87;15.03;;;3.70;99.90;;;;;;5051800;28;20178;-66
2022/01/15 10:48:01;;;;;;;16.70;14.87;;;3.80;99.90;;;;;;5045036;28;20221;-65
2022/01/15 10:50:35;;;;;;;19.50;14.00;;;3.80;99.90;;;;;;5040193;28;20171;-66
2022/01/15 10:53:08;;;;;;;18.20;13.37;;;3.80;99.90;;;;;;5053547;28;20194;-65
2022/01/15 10:55:34;;;;;;;14.17;12.73;;;3.80;99.90;;;;;;5048039;28;20186;-66
2022/01/15 10:58:03;;;;;;;16.07;14.13;;;3.90;99.90;;;;;;5033254;28;20687;-66
2022/01/15 11:00:36;;;;;;;16.73;14.17;;;4.00;99.90;;;;;;5037317;28;20202;-66
2022/01/15 11:03:06;;;;;;;16.03;14.27;;;4.00;99.90;;;;;;5054005;28;20206;-66
2022/01/15 11:05:46;;;;;;;15.83;14.13;;;4.00;99.90;;;;;;5047390;28;20203;-65
2022/01/15 11:08:26;;;;;;;17.57;15.07;;;4.00;99.90;;;;;;5034280;28;20175;-66
2022/01/15 11:11:00;;;;;;;14.77;12.70;;;4.10;99.90;;;;;;5040740;28;20173;-65
2022/01/15 11:13:30;;;;;;;14.97;13.47;;;4.20;99.90;;;;;;5053800;28;20167;-67
2022/01/15 11:16:00;;;;;;;17.70;14.33;;;4.20;99.90;;;;;;5047517;28;20270;-66
2022/01/15 11:18:35;;;;;;;16.20;13.33;;;4.30;99.90;;;;;;5036432;28;20177;-66
2022/01/15 11:21:04;;;;;;;14.60;13.20;;;4.20;99.90;;;;;;5054373;28;20189;-67
2022/01/15 11:23:31;;;;;;;13.73;12.33;;;4.20;99.90;;;;;;5049428;28;20176;-64
2022/01/15 11:26:00;;;;;;;13.77;12.37;;;4.10;99.90;;;;;;5029497;28;20233;-64
2022/01/15 11:28:28;;;;;;;15.10;13.43;;;4.10;99.90;;;;;;5032459;28;20187;-65
2022/01/15 11:30:58;;;;;;;16.00;14.30;;;4.20;99.90;;;;;;5033223;28;20207;-65
2022/01/15 11:33:32;;;;;;;15.00;13.13;;;4.10;99.90;;;;;;5032824;28;20249;-64
2022/01/15 11:35:58;;;;;;;15.07;13.10;;;4.10;99.90;;;;;;5050627;28;20175;-65
2022/01/15 11:38:45;;;;;;;15.37;13.87;;;4.00;99.90;;;;;;5038926;28;20188;-65
2022/01/15 11:41:25;;;;;;;16.33;13.30;;;4.10;99.90;;;;;;5030830;28;20229;-65
2022/01/15 11:43:52;;;;;;;15.90;12.50;;;4.20;99.90;;;;;;5029148;28;20183;-64
2022/01/15 11:46:32;;;;;;;14.77;13.03;;;4.20;99.90;;;;;;5031367;28;20207;-64
2022/01/15 11:49:36;;;;;;;14.60;12.97;;;4.10;99.90;;;;;;5050896;28;20246;-65
2022/01/15 11:52:12;;;;;;;14.27;11.90;;;4.10;99.90;;;;;;5042348;28;20214;-65
2022/01/15 11:55:05;;;;;;;14.03;12.60;;;4.10;99.90;;;;;;5030854;28;20210;-64
2022/01/15 11:57:33;;;;;;;15.53;13.80;;;4.20;99.90;;;;;;5039784;28;20186;-65
2022/01/15 12:00:21;;;;;;;13.20;11.83;;;4.20;99.90;;;;;;5048916;28;20183;-64
2022/01/15 12:03:19;;;;;;;13.43;12.13;;;4.10;99.90;;;;;;5046397;28;20249;-65
2022/01/15 12:05:47;;;;;;;13.20;11.97;;;4.20;99.90;;;;;;5016695;28;20214;-65
2022/01/15 12:08:12;;;;;;;13.77;12.37;;;4.10;99.90;;;;;;5038995;28;20310;-64
2022/01/15 12:10:42;;;;;;;13.07;11.77;;;4.10;99.90;;;;;;5042453;28;20643;-64
2022/01/15 12:13:23;;;;;;;14.37;12.83;;;4.10;99.90;;;;;;5052486;28;20175;-65
2022/01/15 12:16:08;;;;;;;14.00;12.53;;;4.10;99.90;;;;;;5049411;28;20208;-64
2022/01/15 12:18:44;;;;;;;13.80;12.50;;;4.10;99.90;;;;;;5052824;28;20217;-64
2022/01/15 12:21:10;;;;;;;13.43;12.03;;;4.20;99.90;;;;;;5044504;28;20894;-64
2022/01/15 12:23:36;;;;;;;12.80;11.60;;;4.20;99.90;;;;;;5046736;28;20266;-63
2022/01/15 12:26:09;;;;;;;13.53;12.23;;;4.20;99.90;;;;;;5053675;28;20209;-64
2022/01/15 12:28:34;;;;;;;16.40;13.63;;;4.20;99.90;;;;;;5040213;28;20206;-64
2022/01/15 12:31:00;;;;;;;14.27;12.87;;;4.20;99.90;;;;;;5033564;28;20191;-64
2022/01/15 12:33:26;;;;;;;13.87;12.53;;;4.20;99.90;;;;;;5043499;28;20186;-65
2022/01/15 12:35:54;;;;;;;15.13;13.67;;;4.30;99.90;;;;;;5052015;28;20191;-65
2022/01/15 12:38:29;;;;;;;17.13;13.50;;;4.30;99.90;;;;;;5044907;28;20187;-65
2022/01/15 12:41:06;;;;;;;13.67;12.57;;;4.40;99.90;;;;;;5033510;28;20201;-64
2022/01/15 12:43:44;;;;;;;14.70;13.17;;;4.50;99.90;;;;;;5043142;28;20205;-65
2022/01/15 12:46:19;;;;;;;13.87;12.53;;;4.50;99.90;;;;;;5054042;28;20210;-66
2022/01/15 12:48:46;;;;;;;14.03;12.63;;;4.50;99.90;;;;;;5043186;28;20186;-66
2022/01/15 12:51:15;;;;;;;14.23;12.90;;;4.60;99.90;;;;;;5033692;28;20222;-65
2022/01/15 12:53:45;;;;;;;15.27;13.77;;;4.60;99.90;;;;;;5041835;28;20181;-64
2022/01/15 12:56:13;;;;;;;14.47;12.97;;;4.70;99.90;;;;;;5040541;28;20195;-65
2022/01/15 12:58:39;;;;;;;14.10;12.60;;;4.60;99.90;;;;;;5053511;28;20179;-65